CheckWX is a tool to help pilots better visualize weather data.  It is not intended as a substitute for an official pre-flight weather briefing.

07:03:23 UTC

KLHB METAR
Hearne Municipal Airport
Hearne, Texas, USA
Current

8 mins ago

KLHB 030655Z AUTO 13007KT 10SM OVC020 19/17 A2992 RMK AO2 T01900171
Observed
Apr-3 @ 06:55 UTC
Wind
  • 130° at 7 KTS
Visibility
Flight Rules
MVFR
Cloud Levels
  • Overcast at 2,000' AGL
Temperature
19°C / 66°F
Dewpoint
17°C / 63°F
Humidity
88%
Altimeter
29.92" Hg
Pressure
1013.22 hPa
Previous

28 mins ago

KLHB 030635Z AUTO 12004KT 10SM BKN022 BKN028 OVC034 19/17 A2992 RMK AO2 T01900172
Observed
Apr-3 @ 06:35 UTC
Wind
  • 120° at 4 KTS
Visibility
Flight Rules
MVFR
Cloud Levels
  • Broken at 2,200' AGL
  • Broken at 2,800' AGL
  • Overcast at 3,400' AGL
Temperature
19°C / 66°F
Dewpoint
17°C / 63°F
Humidity
88%
Altimeter
29.92" Hg
Pressure
1013.22 hPa
Previous

48 mins ago

KLHB 030615Z AUTO 12007KT 10SM SCT022 SCT038 OVC047 19/17 A2993 RMK AO2 T01910173
Observed
Apr-3 @ 06:15 UTC
Wind
  • 120° at 7 KTS
Visibility
Flight Rules
VFR
Cloud Levels
  • Scattered at 2,200' AGL
  • Scattered at 3,800' AGL
  • Overcast at 4,700' AGL
Temperature
19°C / 66°F
Dewpoint
17°C / 63°F
Humidity
88%
Altimeter
29.93" Hg
Pressure
1013.52 hPa